Time;durP1;ratioP1;P1;durP2;ratioP2;P2;SDS_P1;SDS_P2;PMS_P1;PMS_P2;Temp;Humidity;BMP_temperature;BMP_pressure;BME280_temperature;BME280_humidity;BME280_pressure;Samples;Min_cycle;Max_cycle;Signal;HPM_P1;HPM_P2
2024/01/28 00:01:17;;;;;;;18.37;8.33;;;4.70;93.10;;;6.19;64.66;103399.38;3080703;46;20459;-74
2024/01/28 00:03:45;;;;;;;19.30;8.30;;;4.70;93.10;;;6.20;64.46;103399.31;3081760;46;20568;-73
2024/01/28 00:06:15;;;;;;;18.13;8.73;;;4.70;93.10;;;6.21;64.61;103398.38;3081619;46;20431;-74
2024/01/28 00:08:44;;;;;;;18.93;8.00;;;4.70;93.10;;;6.21;64.42;103393.16;3081172;46;21022;-74
2024/01/28 00:11:12;;;;;;;20.43;8.30;;;4.80;93.10;;;6.26;64.59;103385.91;3081807;46;20510;-74
2024/01/28 00:13:41;;;;;;;18.87;8.00;;;4.70;93.30;;;6.27;64.34;103392.84;3081737;46;20428;-74
2024/01/28 00:16:17;;;;;;;19.63;8.13;;;4.80;93.20;;;6.26;64.24;103385.06;3081609;46;20443;-73
2024/01/28 00:18:46;;;;;;;22.53;8.03;;;4.80;93.10;;;6.26;64.29;103380.69;3080988;46;20521;-74
2024/01/28 00:21:15;;;;;;;16.17;7.80;;;4.80;93.10;;;6.25;64.18;103383.41;3081565;46;20564;-73
2024/01/28 00:23:43;;;;;;;25.83;8.53;;;4.80;93.00;;;6.22;64.11;103387.00;3081609;46;20456;-74
2024/01/28 00:26:11;;;;;;;15.30;7.83;;;4.80;93.00;;;6.20;64.09;103388.03;3081634;46;20473;-73
2024/01/28 00:28:40;;;;;;;19.43;8.07;;;4.80;93.00;;;6.19;64.48;103379.31;3080880;46;21130;-74
2024/01/28 00:31:11;;;;;;;15.93;7.27;;;4.70;92.90;;;6.18;64.04;103372.38;3081325;46;20509;-74
2024/01/28 00:33:40;;;;;;;16.33;8.10;;;4.70;93.00;;;6.19;64.16;103368.88;3081351;46;20504;-74
2024/01/28 00:36:17;;;;;;;11.83;6.60;;;4.70;93.00;;;6.19;64.30;103373.25;3081177;46;20461;-73
2024/01/28 00:38:46;;;;;;;16.30;7.90;;;4.70;93.20;;;6.22;64.15;103363.47;3080345;46;21074;-74
2024/01/28 00:41:28;;;;;;;16.97;8.30;;;4.70;93.20;;;6.24;64.37;103377.31;3080963;46;20434;-73
2024/01/28 00:43:58;;;;;;;16.40;7.20;;;4.70;93.20;;;6.27;64.32;103355.38;3081435;46;20439;-73
2024/01/28 00:46:26;;;;;;;12.90;7.10;;;4.70;93.20;;;6.27;64.14;103351.00;3081067;46;20482;-74
2024/01/28 00:48:54;;;;;;;16.07;7.53;;;4.70;93.10;;;6.28;64.21;103357.06;3080947;46;20438;-74
2024/01/28 00:51:23;;;;;;;11.30;7.37;;;4.70;93.10;;;6.26;64.14;103351.94;3081282;46;20522;-74
2024/01/28 00:53:52;;;;;;;11.60;6.97;;;4.70;93.00;;;6.25;63.96;103337.19;3080495;46;20435;-73
2024/01/28 00:56:20;;;;;;;17.97;7.13;;;4.70;93.00;;;6.26;64.33;103340.63;3084332;46;20437;-73
2024/01/28 00:58:48;;;;;;;16.43;7.37;;;4.70;93.20;;;6.28;64.25;103342.22;3085923;46;20478;-73
2024/01/28 01:01:19;;;;;;;24.70;8.27;;;4.80;93.30;;;6.30;64.30;103344.78;3085897;46;20453;-74
2024/01/28 01:03:47;;;;;;;17.03;8.17;;;4.80;93.30;;;6.31;64.20;103349.91;3086105;46;20454;-75
2024/01/28 01:06:16;;;;;;;22.40;8.10;;;4.80;93.20;;;6.31;64.15;103357.75;3085980;46;21038;-74
2024/01/28 01:08:46;;;;;;;17.97;8.17;;;4.80;93.10;;;6.26;63.88;103353.69;3085533;46;20449;-74
2024/01/28 01:11:14;;;;;;;17.40;8.47;;;4.80;92.90;;;6.19;63.99;103347.94;3085731;46;20458;-74
2024/01/28 01:13:42;;;;;;;19.30;8.87;;;4.80;92.90;;;6.17;64.01;103355.03;3085701;46;20454;-73
2024/01/28 01:16:11;;;;;;;14.23;7.87;;;4.70;92.80;;;6.13;64.05;103348.28;3085548;46;20566;-74
2024/01/28 01:18:39;;;;;;;18.77;8.10;;;4.70;92.90;;;6.11;64.40;103344.88;3085508;46;20500;-74
2024/01/28 01:21:08;;;;;;;19.63;8.53;;;4.70;93.10;;;6.12;64.53;103346.59;3085781;46;21003;-73
2024/01/28 01:23:36;;;;;;;23.53;9.50;;;4.70;93.30;;;6.16;64.82;103353.34;3085830;46;20488;-73
2024/01/28 01:26:04;;;;;;;14.83;8.10;;;4.70;93.50;;;6.19;64.80;103352.31;3085688;46;20507;-74
2024/01/28 01:28:33;;;;;;;23.20;8.43;;;4.70;93.50;;;6.19;64.47;103350.56;3085177;46;21001;-73
2024/01/28 01:31:04;;;;;;;18.50;8.80;;;4.70;93.40;;;6.19;64.31;103352.31;3085662;46;20437;-73
2024/01/28 01:33:32;;;;;;;16.40;8.37;;;4.70;93.20;;;6.15;64.30;103351.66;3085704;46;20445;-73
2024/01/28 01:36:01;;;;;;;14.13;7.63;;;4.70;93.00;;;6.09;64.24;103349.34;3085942;46;20448;-73
2024/01/28 01:38:30;;;;;;;15.33;8.43;;;4.70;93.00;;;6.03;64.40;103347.94;3084436;46;20449;-74
2024/01/28 01:40:58;;;;;;;20.73;9.30;;;4.60;92.90;;;5.98;64.51;103342.09;3085927;46;20458;-74
2024/01/28 01:43:27;;;;;;;18.70;8.13;;;4.60;92.90;;;5.92;64.74;103344.19;3085837;46;21096;-73
2024/01/28 01:45:55;;;;;;;21.30;8.83;;;4.50;92.90;;;5.84;64.84;103341.09;3085269;46;20432;-73
2024/01/28 01:48:24;;;;;;;18.77;8.33;;;4.50;93.00;;;5.79;64.76;103337.88;3084636;46;20500;-74
2024/01/28 01:50:54;;;;;;;12.43;8.00;;;4.50;93.00;;;5.75;64.84;103341.56;3085705;46;20443;-74
2024/01/28 01:53:22;;;;;;;19.83;7.53;;;4.40;93.10;;;5.75;64.95;103341.56;3085692;46;20441;-73
2024/01/28 01:55:51;;;;;;;15.37;7.10;;;4.40;93.30;;;5.74;64.91;103339.88;3085615;46;20430;-74
2024/01/28 01:58:20;;;;;;;17.00;8.07;;;4.30;93.40;;;5.76;65.00;103343.25;3085004;46;20450;-73
2024/01/28 02:00:48;;;;;;;20.50;8.83;;;4.30;93.60;;;5.76;64.79;103344.09;3084803;46;20462;-74
2024/01/28 02:03:16;;;;;;;16.13;9.03;;;4.30;93.40;;;5.73;64.73;103339.00;3085473;46;20437;-73
2024/01/28 02:05:45;;;;;;;17.37;8.53;;;4.30;93.30;;;5.69;64.70;103342.72;3085748;46;20441;-74
2024/01/28 02:08:14;;;;;;;18.97;8.70;;;4.30;93.20;;;5.62;64.73;103338.72;3081771;46;20449;-73
2024/01/28 02:10:42;;;;;;;19.40;8.77;;;4.30;93.10;;;5.58;64.61;103333.75;3082812;46;20444;-73
2024/01/28 02:13:11;;;;;;;19.90;8.73;;;4.20;93.10;;;5.56;64.88;103340.81;3082905;46;20990;-73
2024/01/28 02:15:39;;;;;;;19.57;9.60;;;4.20;93.20;;;5.51;65.03;103340.19;3082999;46;20445;-74
2024/01/28 02:18:08;;;;;;;20.37;8.17;;;4.10;93.20;;;5.46;64.92;103330.84;3082336;46;20457;-74
2024/01/28 02:20:36;;;;;;;17.67;8.37;;;4.10;93.20;;;5.44;65.11;103327.44;3083002;46;20537;-74
2024/01/28 02:23:05;;;;;;;22.40;9.23;;;4.00;93.20;;;5.42;65.01;103329.28;3082584;46;20438;-73
2024/01/28 02:25:34;;;;;;;19.90;9.73;;;4.00;93.20;;;5.39;65.06;103324.25;3082772;46;20508;-74
2024/01/28 02:28:02;;;;;;;20.80;8.70;;;4.00;93.20;;;5.35;65.16;103333.13;3082515;46;20553;-74
2024/01/28 02:30:32;;;;;;;16.60;9.17;;;3.90;93.20;;;5.34;65.23;103322.78;3082841;46;20488;-73
2024/01/28 02:33:00;;;;;;;17.70;9.77;;;3.90;93.30;;;5.32;65.41;103322.84;3082617;46;20516;-73
2024/01/28 02:35:29;;;;;;;18.70;9.63;;;3.90;93.40;;;5.29;65.42;103328.22;3082763;46;20423;-74
2024/01/28 02:37:57;;;;;;;23.53;10.50;;;3.90;93.40;;;5.23;65.53;103315.47;3082118;46;21175;-74
2024/01/28 02:40:26;;;;;;;21.17;10.30;;;3.80;93.40;;;5.21;65.67;103319.91;3082747;46;20576;-74
2024/01/28 02:42:54;;;;;;;21.87;10.07;;;3.80;93.40;;;5.17;65.83;103313.16;3082434;46;20553;-73
2024/01/28 02:45:23;;;;;;;21.17;10.43;;;3.80;93.50;;;5.15;65.55;103315.00;3082802;46;20517;-73
2024/01/28 02:47:51;;;;;;;20.33;9.53;;;3.80;93.50;;;5.16;66.04;103308.84;3082177;46;20533;-74
2024/01/28 02:50:20;;;;;;;23.67;10.40;;;3.80;93.80;;;5.18;65.55;103314.84;3082718;46;20990;-74
2024/01/28 02:52:48;;;;;;;23.40;9.80;;;3.70;93.70;;;5.17;66.08;103323.59;3082659;46;20504;-71
2024/01/28 02:55:16;;;;;;;16.47;9.67;;;3.70;93.70;;;5.13;66.17;103311.66;3082688;46;20945;-73
2024/01/28 02:57:45;;;;;;;18.60;10.33;;;3.70;93.70;;;5.06;66.37;103305.03;3082019;46;20446;-74
2024/01/28 03:00:15;;;;;;;20.63;10.90;;;3.70;93.80;;;5.01;66.70;103306.16;3082720;46;20449;-74
2024/01/28 03:02:44;;;;;;;17.57;10.70;;;3.70;93.90;;;5.00;66.57;103296.63;3082331;46;20427;-74
2024/01/28 03:05:13;;;;;;;19.90;9.87;;;3.60;93.80;;;4.98;66.73;103296.72;3082338;46;20522;-74
2024/01/28 03:07:41;;;;;;;16.20;10.47;;;3.60;93.90;;;4.95;66.79;103291.66;3081818;46;20438;-73
2024/01/28 03:10:09;;;;;;;20.70;11.17;;;3.60;93.90;;;4.92;66.91;103289.19;3082307;46;21025;-73
2024/01/28 03:12:38;;;;;;;23.07;12.37;;;3.60;94.00;;;4.91;66.79;103292.72;3081809;46;21080;-73
2024/01/28 03:15:07;;;;;;;22.40;10.47;;;3.60;94.00;;;4.87;67.29;103288.59;3082168;46;20427;-74
2024/01/28 03:17:35;;;;;;;19.20;10.63;;;3.50;94.20;;;4.84;67.45;103282.66;3081791;46;20450;-73
2024/01/28 03:20:04;;;;;;;25.27;11.40;;;3.50;94.20;;;4.83;67.31;103279.19;3082115;46;20434;-73
2024/01/28 03:22:32;;;;;;;24.57;11.60;;;3.50;94.20;;;4.82;67.41;103277.53;3081833;46;20552;-73
2024/01/28 03:25:01;;;;;;;17.67;11.07;;;3.50;94.20;;;4.81;67.39;103275.81;3082088;46;20518;-73
2024/01/28 03:27:29;;;;;;;20.73;12.00;;;3.40;94.20;;;4.79;67.73;103270.69;3081460;46;20439;-74
2024/01/28 03:29:58;;;;;;;19.67;10.50;;;3.40;94.30;;;4.78;67.42;103263.78;3082100;46;20556;-73
2024/01/28 03:32:26;;;;;;;24.43;11.53;;;3.40;94.40;;;4.78;67.25;103253.34;3081714;46;20438;-74
2024/01/28 03:34:54;;;;;;;23.53;11.63;;;3.40;94.40;;;4.77;67.78;103263.88;3082640;46;20475;-74
2024/01/28 03:37:23;;;;;;;19.70;10.70;;;3.30;94.40;;;4.76;67.62;103264.75;3081442;46;21015;-73
2024/01/28 03:39:52;;;;;;;17.53;10.30;;;3.40;94.60;;;4.73;67.67;103260.53;3081947;46;20463;-74
2024/01/28 03:42:22;;;;;;;16.43;10.50;;;3.40;94.60;;;4.72;68.08;103258.03;3082386;46;20471;-73
2024/01/28 03:44:50;;;;;;;18.03;10.80;;;3.30;94.60;;;4.72;67.77;103252.81;3081667;46;20439;-73
2024/01/28 03:47:18;;;;;;;21.90;10.70;;;3.30;94.50;;;4.73;67.76;103254.50;3081716;46;20461;-72
2024/01/28 03:49:47;;;;;;;23.90;10.87;;;3.30;94.60;;;4.72;67.58;103247.59;3082159;46;20521;-74
2024/01/28 03:52:16;;;;;;;27.37;11.77;;;3.30;94.60;;;4.71;68.06;103243.28;3081611;46;21023;-74
2024/01/28 03:54:44;;;;;;;21.33;11.23;;;3.30;94.60;;;4.71;67.47;103245.88;3081760;46;20438;-73
2024/01/28 03:57:13;;;;;;;26.23;11.97;;;3.30;94.60;;;4.70;67.47;103245.06;3081774;46;20509;-74
2024/01/28 03:59:41;;;;;;;18.47;10.37;;;3.30;94.60;;;4.70;67.70;103242.47;3082023;46;20438;-73
2024/01/28 04:02:09;;;;;;;21.40;11.40;;;3.30;94.70;;;4.69;67.67;103242.50;3081817;46;20522;-73
2024/01/28 04:04:38;;;;;;;20.70;11.43;;;3.20;94.70;;;4.65;68.14;103236.63;3081372;46;20455;-74
2024/01/28 04:07:06;;;;;;;16.00;10.43;;;3.30;94.70;;;4.65;67.82;103246.19;3081316;46;20442;-73
2024/01/28 04:09:37;;;;;;;18.93;10.57;;;3.20;94.70;;;4.63;67.91;103242.81;3081553;46;21184;-73
2024/01/28 04:12:06;;;;;;;16.90;10.13;;;3.20;94.80;;;4.67;67.93;103240.00;3081692;46;20450;-73
2024/01/28 04:14:35;;;;;;;21.67;11.10;;;3.20;94.80;;;4.72;68.12;103237.16;3081582;46;20434;-73
2024/01/28 04:17:03;;;;;;;21.23;11.50;;;3.20;95.20;;;4.77;68.22;103233.41;3081209;46;20502;-72
2024/01/28 04:19:32;;;;;;;20.70;10.63;;;3.30;95.20;;;4.78;67.80;103236.84;3081588;46;20456;-73
2024/01/28 04:22:00;;;;;;;24.87;11.97;;;3.30;95.00;;;4.76;67.32;103229.09;3081781;46;20438;-73
2024/01/28 04:24:29;;;;;;;21.70;10.67;;;3.30;94.70;;;4.74;67.31;103230.94;3081475;46;20524;-74
2024/01/28 04:26:57;;;;;;;20.70;10.97;;;3.30;94.70;;;4.71;67.75;103225.88;3081330;46;20579;-73
2024/01/28 04:29:26;;;;;;;20.30;10.30;;;3.30;94.60;;;4.70;67.59;103218.13;3081372;46;20434;-74
2024/01/28 04:31:54;;;;;;;19.27;10.37;;;3.30;94.70;;;4.71;67.86;103222.41;3080849;46;20432;-73
2024/01/28 04:34:23;;;;;;;13.57;10.77;;;3.30;94.70;;;4.70;67.49;103218.13;3081093;46;20497;-73
2024/01/28 04:36:51;;;;;;;19.73;10.03;;;3.20;94.70;;;4.66;67.75;103216.56;3081171;46;20494;-73
2024/01/28 04:39:20;;;;;;;17.07;9.13;;;3.30;94.70;;;4.61;67.94;103218.59;3081578;46;20462;-74
2024/01/28 04:41:48;;;;;;;19.57;10.57;;;3.20;94.60;;;4.58;67.47;103208.31;3081606;46;20438;-74
2024/01/28 04:44:19;;;;;;;16.73;8.80;;;3.20;94.50;;;4.55;67.62;103222.34;3081018;46;20427;-74
2024/01/28 04:46:48;;;;;;;22.10;10.33;;;3.20;94.60;;;4.53;68.04;103211.13;3081382;46;20482;-73
2024/01/28 04:49:17;;;;;;;18.70;10.40;;;3.10;94.60;;;4.52;67.84;103213.78;3080886;46;20563;-73
2024/01/28 04:51:45;;;;;;;20.80;10.10;;;3.10;94.60;;;4.50;68.04;103210.41;3081369;46;20458;-73
2024/01/28 04:54:14;;;;;;;20.83;10.43;;;3.10;94.70;;;4.49;68.07;103213.97;3081136;46;20491;-73
2024/01/28 04:56:44;;;;;;;18.77;10.17;;;3.10;94.70;;;4.47;68.08;103205.38;3080831;46;20463;-73
2024/01/28 04:59:12;;;;;;;18.03;9.07;;;3.10;94.70;;;4.48;68.16;103205.28;3080455;46;21026;-73
2024/01/28 05:01:41;;;;;;;21.63;9.90;;;3.10;95.00;;;4.48;68.36;103201.84;3081149;46;20434;-74
2024/01/28 05:04:09;;;;;;;17.67;9.07;;;3.00;94.90;;;4.48;68.25;103196.63;3080862;46;20426;-73
2024/01/28 05:06:38;;;;;;;16.37;8.97;;;3.10;94.90;;;4.47;68.27;103200.16;3081229;46;20991;-73
2024/01/28 05:09:08;;;;;;;23.50;9.80;;;3.10;94.90;;;4.49;68.02;103187.91;3080808;46;21146;-73
2024/01/28 05:11:36;;;;;;;17.10;8.90;;;3.00;95.00;;;4.49;68.17;103182.69;3081111;46;21100;-72
2024/01/28 05:14:05;;;;;;;20.03;9.27;;;3.00;95.00;;;4.50;68.24;103176.53;3080999;46;20434;-74
2024/01/28 05:16:33;;;;;;;17.50;9.43;;;3.00;95.00;;;4.50;68.46;103179.13;3080851;46;20472;-73
2024/01/28 05:19:02;;;;;;;14.40;7.77;;;3.10;95.10;;;4.50;68.29;103176.53;3080420;46;20479;-73
2024/01/28 05:21:30;;;;;;;14.83;8.43;;;3.00;95.00;;;4.48;68.13;103179.22;3080899;46;20437;-73
2024/01/28 05:24:00;;;;;;;17.33;7.80;;;3.00;94.90;;;4.50;67.83;103189.56;3080718;46;20442;-74
2024/01/28 05:26:29;;;;;;;17.97;7.80;;;3.00;94.90;;;4.49;68.05;103188.72;3080725;46;20487;-73
2024/01/28 05:29:03;;;;;;;21.27;9.50;;;3.10;95.00;;;4.49;68.24;103177.47;3080660;46;20535;-73
2024/01/28 05:31:33;;;;;;;14.30;7.50;;;3.00;94.90;;;4.49;68.14;103173.06;3081431;46;20530;-73
2024/01/28 05:34:02;;;;;;;17.13;8.20;;;3.00;95.00;;;4.48;68.12;103175.75;3080847;46;20434;-73
2024/01/28 05:36:30;;;;;;;17.77;8.20;;;3.00;95.00;;;4.49;68.23;103182.69;3080622;46;20482;-74
2024/01/28 05:38:59;;;;;;;14.13;6.80;;;3.00;95.10;;;4.47;68.47;103174.09;3080298;46;21065;-73
2024/01/28 05:41:28;;;;;;;20.67;7.47;;;3.00;95.10;;;4.47;68.31;103179.31;3081313;46;21016;-73
2024/01/28 05:43:56;;;;;;;13.23;7.00;;;3.00;95.00;;;4.49;68.24;103180.06;3083204;46;20450;-73
2024/01/28 05:46:25;;;;;;;16.43;6.83;;;3.00;95.10;;;4.48;68.17;103170.56;3082966;46;20522;-74
2024/01/28 05:48:54;;;;;;;17.00;7.13;;;3.00;95.10;;;4.47;68.44;103177.53;3082730;46;20587;-73
2024/01/28 05:51:23;;;;;;;15.67;7.30;;;3.00;95.00;;;4.47;68.26;103179.31;3082983;46;20427;-73
2024/01/28 05:53:51;;;;;;;15.00;7.67;;;3.00;95.00;;;4.47;68.25;103185.34;3083031;46;21049;-73
2024/01/28 05:56:20;;;;;;;17.40;6.77;;;3.00;95.00;;;4.50;68.43;103184.34;3083061;46;20477;-73
2024/01/28 05:58:49;;;;;;;15.07;6.83;;;3.00;95.50;;;4.55;68.33;103187.59;3082791;46;21033;-73
2024/01/28 06:01:17;;;;;;;18.60;7.07;;;3.10;95.30;;;4.55;68.20;103183.22;3082981;46;20567;-74
2024/01/28 06:03:45;;;;;;;13.30;6.30;;;3.10;95.10;;;4.56;68.14;103173.63;3082901;46;21137;-73
2024/01/28 06:06:14;;;;;;;13.43;5.73;;;3.10;95.10;;;4.58;67.84;103169.19;3082912;46;20431;-73
2024/01/28 06:08:43;;;;;;;15.20;6.50;;;3.10;95.10;;;4.57;67.79;103170.94;3082381;46;20483;-73
2024/01/28 06:11:11;;;;;;;15.87;7.30;;;3.10;95.00;;;4.57;67.87;103175.31;3082868;46;20442;-74
2024/01/28 06:13:39;;;;;;;13.10;6.03;;;3.10;95.00;;;4.56;67.80;103174.50;3083203;46;20602;-73
2024/01/28 06:16:08;;;;;;;11.90;5.90;;;3.10;94.90;;;4.58;67.96;103171.78;3082883;46;20526;-73
2024/01/28 06:18:43;;;;;;;13.30;5.67;;;3.10;94.90;;;4.59;67.89;103168.25;3082533;46;20446;-73
2024/01/28 06:21:12;;;;;;;14.97;6.10;;;3.10;95.00;;;4.62;68.15;103175.94;3082798;46;20443;-73
2024/01/28 06:23:42;;;;;;;13.87;5.90;;;3.10;95.10;;;4.61;67.77;103176.88;3082887;46;20427;-73
2024/01/28 06:26:10;;;;;;;16.10;6.40;;;3.20;95.00;;;4.60;67.95;103176.00;3083061;46;20434;-73
2024/01/28 06:28:39;;;;;;;14.27;6.80;;;3.10;94.80;;;4.59;67.63;103168.25;3082303;46;20487;-72
2024/01/28 06:31:07;;;;;;;14.77;7.03;;;3.10;94.80;;;4.58;67.66;103166.56;3082707;46;20439;-73
2024/01/28 06:33:35;;;;;;;12.70;6.57;;;3.10;94.80;;;4.58;67.79;103166.56;3082748;46;20492;-73
2024/01/28 06:36:05;;;;;;;17.73;6.23;;;3.10;94.90;;;4.59;67.85;103168.25;3082374;46;20553;-74
2024/01/28 06:38:33;;;;;;;15.37;6.50;;;3.10;94.90;;;4.57;67.46;103167.50;3082354;46;20498;-73
2024/01/28 06:41:02;;;;;;;16.10;6.77;;;3.10;94.80;;;4.55;67.63;103171.94;3082557;46;21022;-72
2024/01/28 06:43:30;;;;;;;9.77;5.63;;;3.10;94.70;;;4.54;67.73;103170.28;3082667;46;20554;-74
2024/01/28 06:45:59;;;;;;;14.57;6.77;;;3.10;94.70;;;4.53;67.68;103166.81;3082760;46;20535;-73
2024/01/28 06:48:27;;;;;;;10.73;5.93;;;3.10;94.80;;;4.51;67.80;103170.41;3082161;46;20446;-73
2024/01/28 06:50:56;;;;;;;13.47;5.97;;;3.10;94.80;;;4.48;67.65;103162.72;3082539;46;20434;-73
2024/01/28 06:53:24;;;;;;;15.57;6.30;;;3.00;94.70;;;4.46;67.65;103167.19;3081962;46;20437;-73
2024/01/28 06:55:53;;;;;;;15.47;6.53;;;3.00;94.70;;;4.44;67.89;103158.59;3082290;46;20506;-74
2024/01/28 06:58:21;;;;;;;14.77;5.97;;;3.00;94.80;;;4.42;67.59;103156.03;3082173;46;21006;-73
2024/01/28 07:00:50;;;;;;;14.10;5.87;;;3.00;94.80;;;4.44;67.98;103150.78;3082497;46;20459;-72
2024/01/28 07:03:19;;;;;;;11.50;6.27;;;2.90;94.90;;;4.46;68.00;103147.19;3082370;46;20439;-72
2024/01/28 07:05:48;;;;;;;10.47;5.60;;;3.00;95.10;;;4.47;68.03;103143.63;3081652;46;20434;-73
2024/01/28 07:08:16;;;;;;;10.63;6.50;;;3.00;95.10;;;4.50;68.02;103134.81;3082192;46;20446;-74
2024/01/28 07:10:44;;;;;;;14.07;5.70;;;3.00;95.10;;;4.52;68.16;103130.38;3082437;46;20568;-73
2024/01/28 07:13:13;;;;;;;13.63;5.83;;;3.00;95.00;;;4.54;67.89;103128.56;3082595;46;21010;-73
2024/01/28 07:15:41;;;;;;;12.43;5.87;;;3.00;95.00;;;4.56;67.79;103131.91;3082383;46;20434;-74
2024/01/28 07:18:10;;;;;;;14.17;6.03;;;3.10;95.00;;;4.58;67.41;103128.31;3081825;46;20457;-74
2024/01/28 07:20:38;;;;;;;14.07;6.00;;;3.10;95.00;;;4.56;67.53;103127.56;3082191;46;20431;-74
2024/01/28 07:23:07;;;;;;;17.13;6.20;;;3.10;94.80;;;4.54;67.70;103138.97;3082091;46;20454;-73
2024/01/28 07:25:35;;;;;;;16.43;6.37;;;3.10;94.80;;;4.51;67.69;103131.31;3082052;46;21014;-73
2024/01/28 07:28:04;;;;;;;12.23;6.10;;;3.10;94.80;;;4.51;67.59;103136.50;3081777;46;20438;-73
2024/01/28 07:30:32;;;;;;;13.03;5.63;;;3.10;94.80;;;4.48;67.46;103141.88;3082418;46;20427;-73
2024/01/28 07:33:01;;;;;;;16.37;6.57;;;3.00;94.70;;;4.45;67.66;103140.25;3081817;46;20519;-73
2024/01/28 07:35:29;;;;;;;14.87;6.03;;;3.00;94.70;;;4.43;67.84;103129.06;3082155;46;20526;-73
2024/01/28 07:37:58;;;;;;;11.80;5.90;;;3.00;94.70;;;4.45;67.80;103126.38;3081924;46;20443;-73
2024/01/28 07:40:26;;;;;;;19.43;6.13;;;3.00;94.80;;;4.53;68.13;103134.66;3081987;46;20434;-73
2024/01/28 07:42:55;;;;;;;14.43;6.33;;;3.00;95.20;;;4.56;67.92;103139.75;3082024;46;20427;-73
2024/01/28 07:45:23;;;;;;;10.27;5.80;;;3.00;95.00;;;4.57;67.69;103134.44;3081828;46;21012;-74
2024/01/28 07:47:52;;;;;;;14.27;7.00;;;3.10;94.90;;;4.59;67.69;103129.13;3081319;46;21150;-74
2024/01/28 07:50:20;;;;;;;11.30;5.20;;;3.10;94.90;;;4.66;67.62;103130.50;3082229;46;20434;-72
2024/01/28 07:52:49;;;;;;;11.33;5.30;;;3.10;95.00;;;4.69;67.40;103135.59;3082035;46;20431;-73
2024/01/28 07:55:18;;;;;;;15.90;6.47;;;3.10;94.90;;;4.72;67.37;103125.84;3082076;46;20447;-74
2024/01/28 07:57:46;;;;;;;11.33;5.63;;;3.20;95.00;;;4.78;67.80;103127.28;3081603;46;20579;-73
2024/01/28 08:00:15;;;;;;;12.83;6.03;;;3.20;95.00;;;4.82;67.18;103124.44;3081688;46;21034;-73
2024/01/28 08:02:43;;;;;;;13.57;5.80;;;3.20;94.90;;;4.86;67.22;103130.38;3081767;46;20514;-73
2024/01/28 08:05:12;;;;;;;18.27;6.17;;;3.30;94.90;;;4.88;66.97;103120.69;3080490;46;20433;-73
2024/01/28 08:07:41;;;;;;;10.00;5.20;;;3.30;94.80;;;4.91;66.88;103115.31;3081432;46;20450;-73
2024/01/28 08:10:09;;;;;;;12.93;5.70;;;3.30;94.90;;;4.93;66.97;103121.28;3081619;46;20474;-73
2024/01/28 08:12:37;;;;;;;10.50;5.80;;;3.40;94.70;;;4.92;66.78;103111.78;3081698;46;20438;-73
2024/01/28 08:15:06;;;;;;;10.27;6.10;;;3.40;94.60;;;4.91;66.51;103112.72;3081512;46;21032;-73
2024/01/28 08:17:35;;;;;;;8.53;5.03;;;3.40;94.40;;;4.92;66.69;103103.94;3081266;46;20565;-73
2024/01/28 08:20:04;;;;;;;16.30;6.23;;;3.40;94.40;;;4.95;66.84;103103.78;3081528;46;21141;-73
2024/01/28 08:22:32;;;;;;;13.43;5.93;;;3.40;94.50;;;5.00;66.48;103101.78;3081336;46;20435;-73
2024/01/28 08:25:01;;;;;;;13.73;5.50;;;3.40;94.50;;;5.08;66.78;103099.63;3081108;46;20427;-73
2024/01/28 08:27:30;;;;;;;12.70;5.57;;;3.50;94.60;;;5.16;66.47;103092.22;3081154;46;20505;-73
2024/01/28 08:29:59;;;;;;;10.43;6.23;;;3.50;94.60;;;5.25;66.59;103101.34;3081256;46;20446;-72
2024/01/28 08:32:28;;;;;;;13.13;5.80;;;3.60;94.60;;;5.31;66.15;103101.88;3081141;46;21053;-73
2024/01/28 08:34:56;;;;;;;14.00;5.67;;;3.70;94.60;;;5.37;66.01;103109.34;3081564;46;20427;-73
2024/01/28 08:37:24;;;;;;;8.37;4.97;;;3.70;94.40;;;5.43;65.55;103108.19;3081187;46;20467;-73
2024/01/28 08:39:53;;;;;;;12.77;6.17;;;3.80;94.40;;;5.46;65.56;103106.28;3081333;46;21168;-72
2024/01/28 08:42:22;;;;;;;15.40;5.43;;;3.80;94.10;;;5.47;65.29;103107.94;3081464;46;20564;-73
2024/01/28 08:44:50;;;;;;;10.47;5.60;;;3.90;94.00;;;5.51;65.70;103102.56;3081359;46;21040;-73
2024/01/28 08:47:19;;;;;;;13.23;5.90;;;3.90;94.00;;;5.55;65.42;103106.69;3080942;46;21020;-73
2024/01/28 08:49:48;;;;;;;11.10;5.07;;;3.90;94.00;;;5.58;64.90;103098.69;3081269;46;20434;-73
2024/01/28 08:52:17;;;;;;;9.60;4.87;;;4.00;93.90;;;5.61;64.97;103108.97;3081118;46;20427;-74
2024/01/28 08:54:46;;;;;;;15.30;5.23;;;4.00;93.90;;;5.63;65.24;103107.13;3081235;46;21029;-73
2024/01/28 08:57:15;;;;;;;13.47;6.10;;;4.00;93.80;;;5.64;64.80;103103.56;3081102;46;20643;-73
2024/01/28 08:59:43;;;;;;;12.00;5.73;;;4.10;93.70;;;5.63;64.43;103107.13;3081289;46;20438;-73
2024/01/28 09:02:11;;;;;;;13.53;6.07;;;4.10;93.50;;;5.64;64.70;103106.16;3081278;46;20450;-73
2024/01/28 09:04:41;;;;;;;11.80;5.10;;;4.10;93.50;;;5.66;64.40;103099.13;3081420;46;20427;-73
2024/01/28 09:07:09;;;;;;;9.60;5.60;;;4.10;93.50;;;5.66;64.54;103099.13;3080671;46;20445;-74
2024/01/28 09:09:37;;;;;;;13.63;5.37;;;4.10;93.50;;;5.70;64.63;103103.25;3081386;46;21087;-73
2024/01/28 09:12:06;;;;;;;13.60;5.67;;;4.10;93.50;;;5.71;64.12;103095.31;3081268;46;21065;-73
2024/01/28 09:14:35;;;;;;;10.97;5.73;;;4.20;93.40;;;5.72;64.28;103096.16;3081202;46;20436;-73
2024/01/28 09:17:03;;;;;;;13.60;5.80;;;4.20;93.30;;;5.72;64.14;103101.38;3081994;46;20432;-73
2024/01/28 09:19:32;;;;;;;13.17;5.33;;;4.20;93.20;;;5.69;64.17;103102.38;3083357;46;20427;-74
2024/01/28 09:22:01;;;;;;;10.80;5.07;;;4.20;93.10;;;5.70;64.30;103098.00;3083808;46;20532;-74
2024/01/28 09:24:30;;;;;;;12.10;5.97;;;4.20;93.00;;;5.71;64.06;103102.28;3083498;46;21061;-73
2024/01/28 09:26:59;;;;;;;12.00;5.87;;;4.30;93.10;;;5.73;64.39;103105.69;3083012;46;21081;-73
2024/01/28 09:29:28;;;;;;;12.30;5.67;;;4.30;93.10;;;5.79;64.34;103113.16;3083099;46;21023;-73
2024/01/28 09:31:59;;;;;;;14.83;6.83;;;4.30;93.10;;;5.83;64.03;103109.44;3083247;46;21130;-73
2024/01/28 09:34:28;;;;;;;11.60;6.70;;;4.30;93.00;;;5.86;63.86;103104.94;3083152;46;20450;-73
2024/01/28 09:36:56;;;;;;;14.37;5.63;;;4.40;93.00;;;5.90;63.54;103105.59;3083047;46;20525;-73
2024/01/28 09:39:25;;;;;;;16.17;7.27;;;4.40;92.90;;;5.97;63.79;103102.56;3083184;46;20529;-73
2024/01/28 09:42:12;;;;;;;11.87;6.90;;;4.40;92.90;;;6.02;63.68;103090.09;3083502;46;20428;-74
2024/01/28 09:44:40;;;;;;;13.77;6.87;;;4.50;93.00;;;6.08;63.16;103088.91;3082319;46;20477;-73
2024/01/28 09:47:09;;;;;;;12.47;5.57;;;4.50;92.80;;;6.16;63.44;103091.91;3082914;46;20511;-73
2024/01/28 09:49:39;;;;;;;15.97;5.77;;;4.60;92.80;;;6.35;62.93;103094.28;3082358;46;20437;-73
2024/01/28 09:52:13;;;;;;;9.67;4.60;;;4.60;92.70;;;6.61;62.09;103089.22;3083004;46;20484;-73
2024/01/28 09:54:44;;;;;;;13.37;5.47;;;4.80;92.50;;;7.22;62.34;103090.78;3082930;46;20427;-74
2024/01/28 09:57:15;;;;;;;9.87;5.27;;;5.00;93.10;;;7.98;61.63;103087.59;3082669;46;20517;-74
2024/01/28 09:59:45;;;;;;;7.07;4.37;;;5.40;93.10;;;8.65;60.16;103083.16;3082970;46;20451;-74
2024/01/28 10:02:16;;;;;;;9.83;5.00;;;5.90;92.60;;;9.12;57.59;103083.34;3082981;46;20492;-73
2024/01/28 10:04:45;;;;;;;12.07;5.00;;;6.50;91.50;;;9.57;56.05;103070.53;3083190;46;20457;-74
2024/01/28 10:07:15;;;;;;;12.63;5.63;;;6.90;90.20;;;9.93;54.76;103070.47;3082520;46;20432;-73
2024/01/28 10:09:45;;;;;;;10.30;5.07;;;7.40;88.90;;;10.36;53.70;103074.28;3082972;46;20490;-73
2024/01/28 10:12:13;;;;;;;11.83;5.27;;;7.80;87.50;;;10.84;51.88;103070.50;3082963;46;20525;-73
2024/01/28 10:14:51;;;;;;;11.40;5.27;;;8.20;84.40;;;10.98;51.52;103071.25;3082688;46;20456;-74
2024/01/28 10:17:22;;;;;;;10.37;5.07;;;8.40;84.70;;;11.06;50.27;103074.09;3082680;46;20444;-73
2024/01/28 10:19:50;;;;;;;11.13;4.83;;;8.70;82.30;;;11.55;50.20;103071.91;3082703;46;20488;-73
2024/01/28 10:22:18;;;;;;;9.03;4.27;;;8.90;82.20;;;12.18;49.84;103071.97;3082849;46;20550;-73
2024/01/28 10:24:47;;;;;;;10.23;5.07;;;9.20;83.20;;;12.87;49.26;103069.59;3082875;46;20497;-74